SDG094 LIMJ-GOBD
Flight info
| Callsign | SDG094 |
|---|---|
| Flight time | N/A |
| Altitude | 41000 |
| Route | UNITA L50 TIDKA DCT ELB DCT KONUT DCT VELEX DCT ADAMI DCT ABDAB UA743 TUC UM725 TBS UG864 TIO UM725 TAMUL UR722 UBATA UM974 KITNI KITNI1D |
| Aircraft | A359/H-SDE2E3GHIJ3J4J5LM1ORWXY/LB1D1 |
Departure
| Time | N/A |
|---|---|
| Airport | Genoa Cristoforo Colombo Airport (LIMJ) |
Arrival
| Time | 2026-05-03 22:33 |
|---|---|
| Airport | Blaise Diagne International Airport (GOBD) |
| Time | Latitude | Longitude | Altitude | Speed | Heading |
|---|---|---|---|---|---|
| 2026-05-03 20:15 | 23.38699 | -7.13838 | 40885 ft | 434 kts | 229° |
| 2026-05-03 20:15 | 23.34693 | -7.18763 | 40882 ft | 434 kts | 229° |
| 2026-05-03 20:16 | 23.30691 | -7.23679 | 40877 ft | 434 kts | 229° |
| 2026-05-03 20:16 | 23.26676 | -7.28604 | 40879 ft | 434 kts | 229° |
| 2026-05-03 20:17 | 23.22667 | -7.33519 | 40876 ft | 435 kts | 229° |
| 2026-05-03 20:17 | 23.18650 | -7.38436 | 40876 ft | 435 kts | 229° |
| 2026-05-03 20:18 | 23.14637 | -7.43344 | 40879 ft | 435 kts | 229° |
| 2026-05-03 20:18 | 23.10647 | -7.48220 | 40876 ft | 435 kts | 229° |
| 2026-05-03 20:19 | 23.06629 | -7.53126 | 40880 ft | 435 kts | 229° |
| 2026-05-03 20:19 | 23.02604 | -7.58035 | 40884 ft | 435 kts | 229° |
| 2026-05-03 20:20 | 22.98585 | -7.62932 | 40876 ft | 434 kts | 229° |
| 2026-05-03 20:20 | 22.94565 | -7.67824 | 40880 ft | 434 kts | 229° |
| 2026-05-03 20:21 | 22.90555 | -7.72702 | 40887 ft | 434 kts | 229° |
| 2026-05-03 20:21 | 22.86523 | -7.77601 | 40886 ft | 435 kts | 229° |
| 2026-05-03 20:22 | 22.82485 | -7.82504 | 40886 ft | 435 kts | 229° |
| 2026-05-03 20:22 | 22.78472 | -7.87368 | 40888 ft | 435 kts | 229° |
| 2026-05-03 20:23 | 22.74437 | -7.92256 | 40890 ft | 435 kts | 229° |
| 2026-05-03 20:23 | 22.70397 | -7.97146 | 40890 ft | 435 kts | 229° |
| 2026-05-03 20:24 | 22.66355 | -8.02033 | 40890 ft | 435 kts | 229° |
| 2026-05-03 20:24 | 22.62314 | -8.06914 | 40890 ft | 435 kts | 229° |
| 2026-05-03 20:25 | 22.58268 | -8.11798 | 40888 ft | 435 kts | 229° |
| 2026-05-03 20:25 | 22.54217 | -8.16682 | 40881 ft | 436 kts | 229° |
| 2026-05-03 20:26 | 22.50164 | -8.21564 | 40880 ft | 436 kts | 229° |
| 2026-05-03 20:26 | 22.46111 | -8.26442 | 40881 ft | 436 kts | 229° |
| 2026-05-03 20:27 | 22.42056 | -8.31316 | 40884 ft | 436 kts | 229° |
| 2026-05-03 20:27 | 22.38025 | -8.36158 | 40881 ft | 436 kts | 229° |
| 2026-05-03 20:28 | 22.33970 | -8.41023 | 40884 ft | 435 kts | 229° |
| 2026-05-03 20:28 | 22.29918 | -8.45881 | 40884 ft | 435 kts | 229° |
| 2026-05-03 20:29 | 22.25856 | -8.50746 | 40883 ft | 435 kts | 229° |
| 2026-05-03 20:29 | 22.21804 | -8.55596 | 40876 ft | 435 kts | 229° |
| 2026-05-03 20:30 | 22.17735 | -8.60461 | 40884 ft | 436 kts | 229° |
| 2026-05-03 20:30 | 22.13690 | -8.65292 | 40884 ft | 436 kts | 228° |
| 2026-05-03 20:31 | 22.09621 | -8.70152 | 40882 ft | 436 kts | 228° |
| 2026-05-03 20:31 | 22.05551 | -8.75003 | 40881 ft | 436 kts | 228° |
| 2026-05-03 20:32 | 22.01478 | -8.79851 | 40884 ft | 435 kts | 228° |
| 2026-05-03 20:32 | 21.97412 | -8.84689 | 40883 ft | 435 kts | 228° |
| 2026-05-03 20:33 | 21.93344 | -8.89525 | 40884 ft | 435 kts | 228° |
| 2026-05-03 20:33 | 21.89272 | -8.94361 | 40883 ft | 435 kts | 228° |
| 2026-05-03 20:34 | 21.85199 | -8.99197 | 40888 ft | 437 kts | 228° |
| 2026-05-03 20:34 | 21.81109 | -9.04046 | 40881 ft | 438 kts | 228° |
| 2026-05-03 20:35 | 21.77015 | -9.08894 | 40883 ft | 438 kts | 228° |
| 2026-05-03 20:35 | 21.72951 | -9.13703 | 40886 ft | 437 kts | 228° |
| 2026-05-03 20:36 | 21.68862 | -9.18538 | 40883 ft | 437 kts | 228° |
| 2026-05-03 20:36 | 21.64763 | -9.23381 | 40880 ft | 437 kts | 228° |
| 2026-05-03 20:37 | 21.60669 | -9.28212 | 40888 ft | 437 kts | 228° |
| 2026-05-03 20:37 | 21.56571 | -9.33046 | 40881 ft | 437 kts | 228° |
| 2026-05-03 20:38 | 21.52479 | -9.37867 | 40867 ft | 437 kts | 227° |
| 2026-05-03 20:38 | 21.48373 | -9.42700 | 40882 ft | 438 kts | 227° |
| 2026-05-03 20:39 | 21.44266 | -9.47529 | 40885 ft | 438 kts | 227° |
| 2026-05-03 20:39 | 21.40185 | -9.52323 | 40883 ft | 438 kts | 227° |
| 2026-05-03 20:40 | 21.36080 | -9.57143 | 40884 ft | 437 kts | 227° |
| 2026-05-03 20:40 | 21.31972 | -9.61960 | 40884 ft | 437 kts | 227° |
| 2026-05-03 20:41 | 21.28532 | -9.65992 | 40883 ft | 437 kts | 227° |
| 2026-05-03 20:41 | 21.24419 | -9.70808 | 40881 ft | 437 kts | 227° |
| 2026-05-03 20:42 | 21.20334 | -9.75586 | 40883 ft | 437 kts | 227° |
| 2026-05-03 20:42 | 21.16222 | -9.80393 | 40884 ft | 437 kts | 227° |
| 2026-05-03 20:43 | 21.12104 | -9.85202 | 40887 ft | 437 kts | 227° |
| 2026-05-03 20:43 | 21.07985 | -9.90007 | 40884 ft | 438 kts | 227° |
| 2026-05-03 20:44 | 21.03869 | -9.94805 | 40885 ft | 438 kts | 227° |
| 2026-05-03 20:44 | 20.99749 | -9.99604 | 40886 ft | 438 kts | 227° |
| 2026-05-03 20:45 | 20.95626 | -10.04402 | 40881 ft | 438 kts | 227° |
| 2026-05-03 20:45 | 20.91503 | -10.09196 | 40881 ft | 438 kts | 227° |
| 2026-05-03 20:46 | 20.87403 | -10.13959 | 40881 ft | 438 kts | 227° |
| 2026-05-03 20:46 | 20.83280 | -10.18743 | 40854 ft | 437 kts | 227° |
| 2026-05-03 20:47 | 20.79151 | -10.23533 | 40884 ft | 438 kts | 227° |
| 2026-05-03 20:47 | 20.75019 | -10.28320 | 40884 ft | 438 kts | 227° |
| 2026-05-03 20:48 | 20.70889 | -10.33100 | 40886 ft | 438 kts | 227° |
| 2026-05-03 20:48 | 20.66762 | -10.37875 | 40885 ft | 438 kts | 227° |
| 2026-05-03 20:49 | 20.62629 | -10.42651 | 40885 ft | 438 kts | 227° |
| 2026-05-03 20:49 | 20.58494 | -10.47425 | 40883 ft | 438 kts | 227° |
| 2026-05-03 20:50 | 20.54359 | -10.52195 | 40883 ft | 438 kts | 227° |
| 2026-05-03 20:50 | 20.50222 | -10.56963 | 40884 ft | 438 kts | 227° |
| 2026-05-03 20:51 | 20.46078 | -10.61737 | 40884 ft | 438 kts | 227° |
| 2026-05-03 20:51 | 20.41931 | -10.66510 | 40886 ft | 439 kts | 227° |
| 2026-05-03 20:52 | 20.37778 | -10.71284 | 40884 ft | 439 kts | 227° |
| 2026-05-03 20:52 | 20.33652 | -10.76023 | 40884 ft | 439 kts | 227° |
| 2026-05-03 20:53 | 20.29490 | -10.80799 | 40882 ft | 439 kts | 227° |
| 2026-05-03 20:53 | 20.25336 | -10.85563 | 40883 ft | 439 kts | 227° |
| 2026-05-03 20:54 | 20.21181 | -10.90324 | 40885 ft | 439 kts | 227° |
| 2026-05-03 20:54 | 20.14942 | -10.97465 | 40884 ft | 439 kts | 227° |
| 2026-05-03 20:55 | 20.10814 | -11.02185 | 40880 ft | 439 kts | 227° |
| 2026-05-03 20:55 | 20.06645 | -11.06950 | 40880 ft | 440 kts | 227° |
| 2026-05-03 20:56 | 20.02462 | -11.11713 | 40888 ft | 441 kts | 226° |
| 2026-05-03 20:56 | 19.97685 | -11.15804 | 40875 ft | 444 kts | 212° |
| 2026-05-03 20:57 | 19.91925 | -11.18307 | 40854 ft | 453 kts | 197° |
| 2026-05-03 20:57 | 19.85742 | -11.19902 | 40870 ft | 461 kts | 195° |
| 2026-05-03 20:58 | 19.79473 | -11.21382 | 40866 ft | 462 kts | 195° |
| 2026-05-03 20:58 | 19.73246 | -11.22883 | 40865 ft | 462 kts | 195° |
| 2026-05-03 20:59 | 19.66982 | -11.24428 | 40860 ft | 462 kts | 195° |
| 2026-05-03 20:59 | 19.60713 | -11.25985 | 40860 ft | 462 kts | 195° |
| 2026-05-03 21:00 | 19.55509 | -11.27277 | 40861 ft | 462 kts | 195° |
| 2026-05-03 21:00 | 19.48187 | -11.29092 | 40861 ft | 462 kts | 195° |
| 2026-05-03 21:01 | 19.41923 | -11.30643 | 40852 ft | 462 kts | 195° |
| 2026-05-03 21:01 | 19.35691 | -11.32185 | 40853 ft | 463 kts | 195° |
| 2026-05-03 21:02 | 19.29418 | -11.33734 | 40854 ft | 463 kts | 195° |
| 2026-05-03 21:02 | 19.23149 | -11.35281 | 40854 ft | 462 kts | 195° |
| 2026-05-03 21:03 | 19.16878 | -11.36829 | 40854 ft | 462 kts | 195° |
| 2026-05-03 21:03 | 19.10603 | -11.38376 | 40853 ft | 462 kts | 195° |
| 2026-05-03 21:04 | 19.04330 | -11.39922 | 40854 ft | 463 kts | 195° |
| 2026-05-03 21:04 | 18.98033 | -11.41472 | 40860 ft | 464 kts | 195° |
| 2026-05-03 21:05 | 18.91787 | -11.43007 | 40865 ft | 464 kts | 195° |
| 2026-05-03 21:05 | 18.85498 | -11.44553 | 40857 ft | 464 kts | 195° |
| 2026-05-03 21:06 | 18.79209 | -11.46097 | 40867 ft | 464 kts | 195° |
| 2026-05-03 21:06 | 18.72921 | -11.47641 | 40859 ft | 465 kts | 195° |
| 2026-05-03 21:07 | 18.66619 | -11.49187 | 40862 ft | 465 kts | 195° |
| 2026-05-03 21:07 | 18.60305 | -11.50733 | 40860 ft | 465 kts | 195° |
| 2026-05-03 21:08 | 18.54030 | -11.52269 | 40859 ft | 465 kts | 195° |
| 2026-05-03 21:08 | 18.47725 | -11.53811 | 40859 ft | 465 kts | 195° |
| 2026-05-03 21:09 | 18.41412 | -11.55354 | 40844 ft | 465 kts | 195° |
| 2026-05-03 21:09 | 18.35099 | -11.56897 | 40853 ft | 466 kts | 195° |
| 2026-05-03 21:10 | 18.28776 | -11.58440 | 40852 ft | 466 kts | 195° |
| 2026-05-03 21:10 | 18.22449 | -11.59983 | 40854 ft | 466 kts | 195° |
| 2026-05-03 21:11 | 18.16128 | -11.61523 | 40843 ft | 466 kts | 195° |
| 2026-05-03 21:11 | 18.09848 | -11.63053 | 40842 ft | 466 kts | 195° |
| 2026-05-03 21:12 | 18.03521 | -11.64593 | 40841 ft | 466 kts | 195° |
| 2026-05-03 21:12 | 17.97199 | -11.66131 | 40843 ft | 467 kts | 194° |
| 2026-05-03 21:13 | 17.90866 | -11.67669 | 40845 ft | 467 kts | 194° |
| 2026-05-03 21:13 | 17.84545 | -11.69204 | 40845 ft | 466 kts | 194° |
| 2026-05-03 21:14 | 17.78209 | -11.70741 | 40843 ft | 467 kts | 194° |
| 2026-05-03 21:14 | 17.71875 | -11.72276 | 40839 ft | 467 kts | 194° |
| 2026-05-03 21:15 | 17.65551 | -11.73808 | 40839 ft | 466 kts | 194° |
| 2026-05-03 21:15 | 17.59266 | -11.75330 | 40838 ft | 466 kts | 194° |
| 2026-05-03 21:16 | 17.52942 | -11.76860 | 40842 ft | 466 kts | 194° |
| 2026-05-03 21:16 | 17.46616 | -11.78390 | 40839 ft | 466 kts | 194° |
| 2026-05-03 21:17 | 17.41317 | -11.79670 | 40839 ft | 466 kts | 194° |
| 2026-05-03 21:17 | 17.33960 | -11.81447 | 40835 ft | 467 kts | 194° |
| 2026-05-03 21:18 | 17.27632 | -11.82973 | 40836 ft | 467 kts | 194° |
| 2026-05-03 21:18 | 17.21296 | -11.84500 | 40837 ft | 467 kts | 194° |
| 2026-05-03 21:19 | 17.14996 | -11.86018 | 40825 ft | 467 kts | 194° |
| 2026-05-03 21:19 | 17.08666 | -11.87542 | 40818 ft | 467 kts | 194° |
| 2026-05-03 21:20 | 17.02332 | -11.89066 | 40826 ft | 467 kts | 194° |
| 2026-05-03 21:20 | 16.95983 | -11.90592 | 40821 ft | 468 kts | 194° |
| 2026-05-03 21:21 | 16.89637 | -11.92117 | 40824 ft | 468 kts | 194° |
| 2026-05-03 21:21 | 16.83332 | -11.93630 | 40816 ft | 468 kts | 194° |
| 2026-05-03 21:22 | 16.76988 | -11.95155 | 40802 ft | 468 kts | 194° |
| 2026-05-03 21:22 | 16.70647 | -11.96676 | 40807 ft | 468 kts | 194° |
| 2026-05-03 21:23 | 16.64293 | -11.98197 | 40807 ft | 468 kts | 194° |
| 2026-05-03 21:23 | 16.57940 | -11.99718 | 40806 ft | 468 kts | 194° |
| 2026-05-03 21:24 | 16.51580 | -12.01239 | 40807 ft | 468 kts | 194° |
| 2026-05-03 21:24 | 16.45228 | -12.02759 | 40806 ft | 468 kts | 194° |
| 2026-05-03 21:25 | 16.38910 | -12.04269 | 40804 ft | 468 kts | 194° |
| 2026-05-03 21:25 | 16.32554 | -12.05787 | 40801 ft | 469 kts | 194° |
| 2026-05-03 21:26 | 16.26191 | -12.07306 | 40808 ft | 469 kts | 194° |
| 2026-05-03 21:26 | 16.19825 | -12.08825 | 40811 ft | 469 kts | 194° |
| 2026-05-03 21:27 | 16.13457 | -12.10343 | 40810 ft | 469 kts | 194° |
| 2026-05-03 21:27 | 16.07086 | -12.11860 | 40810 ft | 469 kts | 194° |
| 2026-05-03 21:28 | 16.00715 | -12.13377 | 40810 ft | 469 kts | 194° |
| 2026-05-03 21:28 | 15.95418 | -12.14638 | 40809 ft | 470 kts | 194° |
| 2026-05-03 21:29 | 15.89040 | -12.16154 | 40814 ft | 470 kts | 194° |
| 2026-05-03 21:29 | 15.82658 | -12.17671 | 40815 ft | 470 kts | 194° |
| 2026-05-03 21:30 | 15.76282 | -12.19185 | 40814 ft | 470 kts | 194° |
| 2026-05-03 21:30 | 15.69943 | -12.20689 | 40816 ft | 470 kts | 194° |
| 2026-05-03 21:31 | 15.63572 | -12.22200 | 40818 ft | 470 kts | 194° |
| 2026-05-03 21:31 | 15.57199 | -12.23713 | 40819 ft | 470 kts | 194° |
| 2026-05-03 21:32 | 15.50823 | -12.25224 | 40818 ft | 470 kts | 194° |
| 2026-05-03 21:32 | 15.44432 | -12.26733 | 40818 ft | 470 kts | 194° |
| 2026-05-03 21:33 | 15.38059 | -12.28239 | 40820 ft | 470 kts | 194° |
| 2026-05-03 21:33 | 15.31670 | -12.29749 | 40821 ft | 470 kts | 194° |
| 2026-05-03 21:34 | 15.25295 | -12.31255 | 40820 ft | 470 kts | 194° |
| 2026-05-03 21:34 | 15.18911 | -12.32762 | 40820 ft | 470 kts | 194° |
| 2026-05-03 21:35 | 15.12524 | -12.34268 | 40823 ft | 470 kts | 194° |
| 2026-05-03 21:35 | 15.06140 | -12.35773 | 40825 ft | 470 kts | 194° |
| 2026-05-03 21:36 | 14.99799 | -12.37267 | 40828 ft | 470 kts | 194° |
| 2026-05-03 21:36 | 14.93412 | -12.38771 | 40812 ft | 470 kts | 194° |
| 2026-05-03 21:37 | 14.87034 | -12.40292 | 40823 ft | 469 kts | 196° |
| 2026-05-03 21:37 | 14.81048 | -12.42846 | 40838 ft | 464 kts | 212° |
| 2026-05-03 21:38 | 14.76111 | -12.47036 | 40838 ft | 458 kts | 229° |
| 2026-05-03 21:38 | 14.72697 | -12.52506 | 40845 ft | 452 kts | 245° |
| 2026-05-03 21:39 | 14.71055 | -12.58725 | 40845 ft | 449 kts | 261° |
| 2026-05-03 21:39 | 14.71266 | -12.65104 | 40848 ft | 450 kts | 277° |
| 2026-05-03 21:40 | 14.73257 | -12.71228 | 40863 ft | 451 kts | 287° |
| 2026-05-03 21:40 | 14.74965 | -12.77362 | 40853 ft | 440 kts | 274° |
| 2026-05-03 21:41 | 14.75331 | -12.83653 | 40842 ft | 441 kts | 268° |
| 2026-05-03 21:41 | 14.75378 | -12.90007 | 40845 ft | 443 kts | 266° |
| 2026-05-03 21:42 | 14.75382 | -12.96379 | 40846 ft | 444 kts | 267° |
| 2026-05-03 21:42 | 14.75406 | -13.02751 | 40845 ft | 443 kts | 267° |
| 2026-05-03 21:43 | 14.75444 | -13.09138 | 40846 ft | 443 kts | 267° |
| 2026-05-03 21:43 | 14.75485 | -13.15499 | 40848 ft | 443 kts | 267° |
| 2026-05-03 21:44 | 14.75523 | -13.21864 | 40848 ft | 443 kts | 267° |
| 2026-05-03 21:44 | 14.75559 | -13.28222 | 40848 ft | 443 kts | 267° |
| 2026-05-03 21:45 | 14.75593 | -13.34541 | 40850 ft | 443 kts | 267° |
| 2026-05-03 21:45 | 14.75625 | -13.40903 | 40848 ft | 443 kts | 267° |
| 2026-05-03 21:46 | 14.75655 | -13.47262 | 40848 ft | 443 kts | 267° |
| 2026-05-03 21:46 | 14.75684 | -13.53621 | 40848 ft | 442 kts | 267° |
| 2026-05-03 21:47 | 14.75713 | -13.59979 | 40848 ft | 442 kts | 267° |
| 2026-05-03 21:47 | 14.75738 | -13.66330 | 40851 ft | 442 kts | 267° |
| 2026-05-03 21:48 | 14.75759 | -13.72685 | 40850 ft | 442 kts | 267° |
| 2026-05-03 21:48 | 14.75780 | -13.79044 | 40856 ft | 442 kts | 267° |
| 2026-05-03 21:49 | 14.75799 | -13.85401 | 40853 ft | 442 kts | 267° |
| 2026-05-03 21:49 | 14.75817 | -13.91701 | 40853 ft | 441 kts | 266° |
| 2026-05-03 21:50 | 14.75833 | -13.98069 | 40853 ft | 440 kts | 266° |
| 2026-05-03 21:50 | 14.75847 | -14.04388 | 40853 ft | 440 kts | 266° |
| 2026-05-03 21:51 | 14.75860 | -14.10678 | 40853 ft | 440 kts | 266° |
| 2026-05-03 21:51 | 14.75871 | -14.17000 | 40853 ft | 440 kts | 266° |
| 2026-05-03 21:52 | 14.75880 | -14.23321 | 40853 ft | 440 kts | 266° |
| 2026-05-03 21:52 | 14.75888 | -14.29642 | 40853 ft | 439 kts | 266° |
| 2026-05-03 21:53 | 14.75893 | -14.35949 | 40856 ft | 439 kts | 266° |
| 2026-05-03 21:53 | 14.75897 | -14.42269 | 40853 ft | 439 kts | 266° |
| 2026-05-03 21:54 | 14.75900 | -14.48582 | 40853 ft | 439 kts | 266° |
| 2026-05-03 21:54 | 14.75900 | -14.54847 | 40853 ft | 439 kts | 266° |
| 2026-05-03 21:55 | 14.75899 | -14.61155 | 40854 ft | 439 kts | 266° |
| 2026-05-03 21:55 | 14.75957 | -14.67466 | 40856 ft | 439 kts | 268° |
| 2026-05-03 21:56 | 14.76041 | -14.73769 | 40853 ft | 438 kts | 267° |
| 2026-05-03 21:56 | 14.76064 | -14.80075 | 40853 ft | 438 kts | 266° |
| 2026-05-03 21:57 | 14.76066 | -14.86372 | 40854 ft | 439 kts | 266° |
| 2026-05-03 21:57 | 14.76059 | -14.92640 | 40853 ft | 439 kts | 266° |
| 2026-05-03 21:58 | 14.76049 | -14.98980 | 40853 ft | 438 kts | 266° |
| 2026-05-03 21:58 | 14.75948 | -15.05223 | 40853 ft | 436 kts | 263° |
| 2026-05-03 21:59 | 14.75557 | -15.11482 | 40853 ft | 437 kts | 263° |
| 2026-05-03 21:59 | 14.75193 | -15.17756 | 40853 ft | 437 kts | 263° |
| 2026-05-03 22:00 | 14.74846 | -15.24026 | 40862 ft | 437 kts | 264° |
| 2026-05-03 22:00 | 14.74503 | -15.30303 | 40861 ft | 437 kts | 264° |
| 2026-05-03 22:01 | 14.74160 | -15.36574 | 40859 ft | 437 kts | 264° |
| 2026-05-03 22:01 | 14.73815 | -15.42851 | 40859 ft | 437 kts | 264° |
| 2026-05-03 22:02 | 14.73469 | -15.49120 | 40859 ft | 437 kts | 264° |
| 2026-05-03 22:02 | 14.73121 | -15.55397 | 40864 ft | 437 kts | 263° |
| 2026-05-03 22:03 | 14.72771 | -15.61674 | 40867 ft | 437 kts | 263° |
| 2026-05-03 22:03 | 14.72422 | -15.67900 | 40872 ft | 437 kts | 264° |
| 2026-05-03 22:04 | 14.72070 | -15.74157 | 40872 ft | 436 kts | 264° |
| 2026-05-03 22:04 | 14.71717 | -15.80407 | 40876 ft | 436 kts | 264° |
| 2026-05-03 22:05 | 14.71362 | -15.86662 | 40878 ft | 436 kts | 264° |
| 2026-05-03 22:05 | 14.71005 | -15.92920 | 40883 ft | 436 kts | 264° |
| 2026-05-03 22:06 | 14.70647 | -15.99168 | 40883 ft | 436 kts | 263° |
| 2026-05-03 22:06 | 14.70287 | -16.05419 | 40885 ft | 435 kts | 263° |
| 2026-05-03 22:07 | 14.69928 | -16.11617 | 40883 ft | 435 kts | 263° |
| 2026-05-03 22:07 | 14.69566 | -16.17850 | 40883 ft | 435 kts | 263° |
| 2026-05-03 22:08 | 14.69202 | -16.24087 | 40886 ft | 435 kts | 263° |
| 2026-05-03 22:08 | 14.68836 | -16.30321 | 40886 ft | 435 kts | 263° |
| 2026-05-03 22:09 | 14.68471 | -16.36513 | 40896 ft | 434 kts | 263° |
| 2026-05-03 22:10 | 14.67917 | -16.45818 | 40567 ft | 432 kts | 263° |
| 2026-05-03 22:10 | 14.67733 | -16.48918 | 40330 ft | 433 kts | 263° |
| 2026-05-03 22:10 | 14.67546 | -16.52025 | 40079 ft | 433 kts | 263° |
| 2026-05-03 22:10 | 14.67357 | -16.55139 | 39625 ft | 434 kts | 263° |
| 2026-05-03 22:11 | 14.67168 | -16.58252 | 39079 ft | 435 kts | 264° |
| 2026-05-03 22:11 | 14.66977 | -16.61379 | 38516 ft | 436 kts | 264° |
| 2026-05-03 22:11 | 14.66786 | -16.64505 | 37884 ft | 438 kts | 263° |
| 2026-05-03 22:11 | 14.66591 | -16.67668 | 37257 ft | 442 kts | 263° |
| 2026-05-03 22:12 | 14.66394 | -16.70852 | 36654 ft | 447 kts | 263° |
| 2026-05-03 22:12 | 14.66194 | -16.74068 | 36071 ft | 451 kts | 263° |
| 2026-05-03 22:12 | 14.65929 | -16.77319 | 35516 ft | 455 kts | 259° |
| 2026-05-03 22:12 | 14.65132 | -16.80445 | 34969 ft | 458 kts | 245° |
| 2026-05-03 22:13 | 14.63531 | -16.83293 | 34419 ft | 462 kts | 230° |
| 2026-05-03 22:13 | 14.61205 | -16.85611 | 33876 ft | 469 kts | 215° |
| 2026-05-03 22:13 | 14.58312 | -16.87201 | 33262 ft | 478 kts | 199° |
| 2026-05-03 22:13 | 14.55024 | -16.87912 | 32649 ft | 486 kts | 183° |
| 2026-05-03 22:14 | 14.51623 | -16.87822 | 32025 ft | 493 kts | 178° |
| 2026-05-03 22:14 | 14.48197 | -16.88134 | 31440 ft | 493 kts | 191° |
| 2026-05-03 22:14 | 14.44993 | -16.89161 | 30873 ft | 486 kts | 202° |
| 2026-05-03 22:14 | 14.42067 | -16.90865 | 30309 ft | 481 kts | 214° |
| 2026-05-03 22:15 | 14.39586 | -16.93157 | 29737 ft | 479 kts | 226° |
| 2026-05-03 22:15 | 14.37650 | -16.95938 | 29098 ft | 478 kts | 238° |
| 2026-05-03 22:15 | 14.36347 | -16.99087 | 28477 ft | 477 kts | 250° |
| 2026-05-03 22:15 | 14.35759 | -17.02370 | 27856 ft | 456 kts | 262° |
| 2026-05-03 22:16 | 14.35901 | -17.05721 | 27280 ft | 483 kts | 275° |
| 2026-05-03 22:16 | 14.36378 | -17.09169 | 26720 ft | 482 kts | 268° |
| 2026-05-03 22:16 | 14.35943 | -17.12547 | 26163 ft | 473 kts | 249° |
| 2026-05-03 22:16 | 14.34498 | -17.15557 | 25613 ft | 468 kts | 230° |
| 2026-05-03 22:17 | 14.33058 | -17.17204 | 25238 ft | 465 kts | 218° |
| 2026-05-03 22:17 | 14.30352 | -17.18959 | 24689 ft | 459 kts | 199° |
| 2026-05-03 22:17 | 14.27266 | -17.19692 | 24164 ft | 455 kts | 180° |
| 2026-05-03 22:17 | 14.24154 | -17.19335 | 23640 ft | 451 kts | 161° |
| 2026-05-03 22:18 | 14.21233 | -17.18170 | 23003 ft | 447 kts | 157° |
| 2026-05-03 22:18 | 14.18212 | -17.17458 | 22395 ft | 446 kts | 172° |
| 2026-05-03 22:18 | 14.15109 | -17.17520 | 21783 ft | 447 kts | 185° |
| 2026-05-03 22:18 | 14.12113 | -17.18339 | 21200 ft | 447 kts | 198° |
| 2026-05-03 22:19 | 14.09379 | -17.19865 | 20623 ft | 448 kts | 212° |
| 2026-05-03 22:19 | 14.07076 | -17.22020 | 20049 ft | 449 kts | 226° |
| 2026-05-03 22:19 | 14.05332 | -17.24691 | 19503 ft | 450 kts | 240° |
| 2026-05-03 22:19 | 14.04277 | -17.27672 | 18946 ft | 431 kts | 254° |
| 2026-05-03 22:20 | 14.04011 | -17.30609 | 18407 ft | 398 kts | 269° |
| 2026-05-03 22:20 | 14.04523 | -17.33298 | 17807 ft | 372 kts | 288° |
| 2026-05-03 22:20 | 14.05760 | -17.35539 | 17192 ft | 354 kts | 308° |
| 2026-05-03 22:20 | 14.07612 | -17.37147 | 16601 ft | 347 kts | 329° |
| 2026-05-03 22:21 | 14.09855 | -17.37953 | 16011 ft | 339 kts | 351° |
| 2026-05-03 22:21 | 14.12181 | -17.37907 | 15448 ft | 332 kts | 8° |
| 2026-05-03 22:21 | 14.14425 | -17.37475 | 14894 ft | 325 kts | 12° |
| 2026-05-03 22:21 | 14.16594 | -17.36904 | 14343 ft | 319 kts | 16° |
| 2026-05-03 22:22 | 14.18693 | -17.36200 | 13798 ft | 315 kts | 20° |
| 2026-05-03 22:22 | 14.20716 | -17.35361 | 13199 ft | 311 kts | 24° |
| 2026-05-03 22:22 | 14.22619 | -17.34405 | 12611 ft | 307 kts | 28° |
| 2026-05-03 22:22 | 14.24467 | -17.33287 | 12016 ft | 302 kts | 33° |
| 2026-05-03 22:23 | 14.26148 | -17.32067 | 11454 ft | 298 kts | 37° |
| 2026-05-03 22:23 | 14.27716 | -17.30695 | 10886 ft | 293 kts | 43° |
| 2026-05-03 22:23 | 14.29124 | -17.29189 | 10330 ft | 289 kts | 49° |
| 2026-05-03 22:23 | 14.30324 | -17.27606 | 9771 ft | 271 kts | 54° |
| 2026-05-03 22:24 | 14.31360 | -17.26037 | 9174 ft | 259 kts | 56° |
| 2026-05-03 22:24 | 14.32355 | -17.24506 | 8601 ft | 255 kts | 53° |
| 2026-05-03 22:24 | 14.33416 | -17.23053 | 8014 ft | 252 kts | 51° |
| 2026-05-03 22:24 | 14.34452 | -17.21604 | 7438 ft | 250 kts | 54° |
| 2026-05-03 22:25 | 14.35276 | -17.20022 | 6889 ft | 248 kts | 66° |
| 2026-05-03 22:25 | 14.35710 | -17.18305 | 6342 ft | 247 kts | 75° |
| 2026-05-03 22:25 | 14.36020 | -17.16577 | 5774 ft | 243 kts | 75° |
| 2026-05-03 22:25 | 14.36330 | -17.14924 | 5208 ft | 234 kts | 74° |
| 2026-05-03 22:26 | 14.36651 | -17.13305 | 4644 ft | 227 kts | 73° |
| 2026-05-03 22:26 | 14.36969 | -17.11721 | 4061 ft | 223 kts | 73° |
| 2026-05-03 22:26 | 14.37277 | -17.10168 | 3487 ft | 219 kts | 73° |
| 2026-05-03 22:26 | 14.37565 | -17.08660 | 3100 ft | 208 kts | 73° |
| 2026-05-03 22:27 | 14.38100 | -17.07355 | 3001 ft | 192 kts | 40° |
| 2026-05-03 22:27 | 14.39302 | -17.06914 | 3021 ft | 188 kts | 357° |
| 2026-05-03 22:27 | 14.40640 | -17.07016 | 2995 ft | 196 kts | 354° |
| 2026-05-03 22:27 | 14.42008 | -17.07092 | 3000 ft | 198 kts | 357° |
| 2026-05-03 22:28 | 14.43383 | -17.07129 | 2996 ft | 198 kts | 356° |
| 2026-05-03 22:28 | 14.44761 | -17.07166 | 2997 ft | 198 kts | 357° |
| 2026-05-03 22:28 | 14.46139 | -17.07188 | 2994 ft | 198 kts | 357° |
| 2026-05-03 22:28 | 14.47495 | -17.07196 | 2996 ft | 198 kts | 358° |
| 2026-05-03 22:29 | 14.48873 | -17.07197 | 2994 ft | 197 kts | 358° |
| 2026-05-03 22:29 | 14.50241 | -17.07195 | 2991 ft | 194 kts | 358° |
| 2026-05-03 22:29 | 14.51568 | -17.07187 | 2889 ft | 188 kts | 359° |
| 2026-05-03 22:29 | 14.52867 | -17.07159 | 2657 ft | 186 kts | 359° |
| 2026-05-03 22:30 | 14.54158 | -17.07174 | 2408 ft | 186 kts | 356° |
| 2026-05-03 22:30 | 14.55456 | -17.07196 | 2165 ft | 186 kts | 358° |
| 2026-05-03 22:30 | 14.56752 | -17.07207 | 1928 ft | 187 kts | 358° |
| 2026-05-03 22:30 | 14.58045 | -17.07219 | 1684 ft | 186 kts | 357° |
| 2026-05-03 22:31 | 14.59338 | -17.07233 | 1451 ft | 182 kts | 357° |
| 2026-05-03 22:31 | 14.60562 | -17.07238 | 1224 ft | 169 kts | 356° |
| 2026-05-03 22:31 | 14.61713 | -17.07245 | 1035 ft | 163 kts | 355° |
| 2026-05-03 22:31 | 14.62816 | -17.07253 | 807 ft | 154 kts | 354° |
| 2026-05-03 22:32 | 14.63839 | -17.07273 | 654 ft | 143 kts | 357° |
| 2026-05-03 22:32 | 14.64789 | -17.07267 | 462 ft | 132 kts | 358° |
| 2026-05-03 22:32 | 14.65675 | -17.07280 | 334 ft | 125 kts | 357° |
| 2026-05-03 22:32 | 14.66508 | -17.07288 | 308 ft | 107 kts | 2° |
| 2026-05-03 22:33 | 14.66979 | -17.07282 | 307 ft | 25 kts | 1° |
| 2026-05-03 22:33 | 14.67028 | -17.07273 | 304 ft | 12 kts | 20° |
| 2026-05-03 22:33 | 14.67077 | -17.07194 | 305 ft | 16 kts | 83° |
| 2026-05-03 22:33 | 14.67079 | -17.07094 | 303 ft | 0 kts | 92° |
| 2026-05-03 22:34 | 14.67079 | -17.07089 | 303 ft | 2 kts | 92° |
| 2026-05-03 22:34 | 14.67079 | -17.07088 | 303 ft | 0 kts | 92° |
| 2026-05-03 22:37 | 14.67061 | -17.07013 | 304 ft | 16 kts | 127° |
| 2026-05-03 22:37 | 14.67011 | -17.06955 | 305 ft | 7 kts | 115° |
| 2026-05-03 22:37 | 14.67009 | -17.06911 | 302 ft | 7 kts | 73° |
| 2026-05-03 22:37 | 14.67021 | -17.06868 | 303 ft | 7 kts | 82° |
| 2026-05-03 22:38 | 14.67023 | -17.06838 | 304 ft | 0 kts | 87° |